sensor_id;sensor_type;location;lat;lon;timestamp;P1;durP1;ratioP1;P2;durP2;ratioP2
14125;SDS011;7141;49.484;11.242;2023-02-15T00:00:21;10.93;;;7.10;;
14125;SDS011;7141;49.484;11.242;2023-02-15T00:02:47;12.13;;;6.87;;
14125;SDS011;7141;49.484;11.242;2023-02-15T00:05:13;10.63;;;6.13;;
14125;SDS011;7141;49.484;11.242;2023-02-15T00:07:39;12.43;;;7.03;;
14125;SDS011;7141;49.484;11.242;2023-02-15T00:10:05;11.60;;;6.63;;
14125;SDS011;7141;49.484;11.242;2023-02-15T00:12:31;10.87;;;6.50;;
14125;SDS011;7141;49.484;11.242;2023-02-15T00:14:57;9.70;;;5.90;;
14125;SDS011;7141;49.484;11.242;2023-02-15T00:17:23;11.20;;;6.93;;
14125;SDS011;7141;49.484;11.242;2023-02-15T00:19:49;13.17;;;7.03;;
14125;SDS011;7141;49.484;11.242;2023-02-15T00:22:15;11.33;;;7.33;;
14125;SDS011;7141;49.484;11.242;2023-02-15T00:24:41;10.43;;;6.77;;
14125;SDS011;7141;49.484;11.242;2023-02-15T00:27:07;11.10;;;7.10;;
14125;SDS011;7141;49.484;11.242;2023-02-15T00:29:34;10.30;;;6.53;;
14125;SDS011;7141;49.484;11.242;2023-02-15T00:32:00;11.00;;;6.47;;
14125;SDS011;7141;49.484;11.242;2023-02-15T00:34:26;11.17;;;6.90;;
14125;SDS011;7141;49.484;11.242;2023-02-15T00:36:52;9.27;;;6.33;;
14125;SDS011;7141;49.484;11.242;2023-02-15T00:39:18;12.80;;;7.13;;
14125;SDS011;7141;49.484;11.242;2023-02-15T00:41:45;11.87;;;7.33;;
14125;SDS011;7141;49.484;11.242;2023-02-15T00:44:11;10.40;;;6.90;;
14125;SDS011;7141;49.484;11.242;2023-02-15T00:46:37;11.47;;;7.03;;
14125;SDS011;7141;49.484;11.242;2023-02-15T00:49:03;10.83;;;7.00;;
14125;SDS011;7141;49.484;11.242;2023-02-15T00:51:29;11.93;;;7.03;;
14125;SDS011;7141;49.484;11.242;2023-02-15T00:53:55;10.27;;;5.97;;
14125;SDS011;7141;49.484;11.242;2023-02-15T00:56:21;10.87;;;6.90;;
14125;SDS011;7141;49.484;11.242;2023-02-15T00:58:47;10.43;;;6.40;;
14125;SDS011;7141;49.484;11.242;2023-02-15T01:01:15;10.40;;;6.83;;
14125;SDS011;7141;49.484;11.242;2023-02-15T01:03:41;12.37;;;6.83;;
14125;SDS011;7141;49.484;11.242;2023-02-15T01:06:07;11.80;;;7.20;;
14125;SDS011;7141;49.484;11.242;2023-02-15T01:08:34;12.63;;;6.57;;
14125;SDS011;7141;49.484;11.242;2023-02-15T01:11:04;12.23;;;7.30;;
14125;SDS011;7141;49.484;11.242;2023-02-15T01:13:30;12.43;;;7.10;;
14125;SDS011;7141;49.484;11.242;2023-02-15T01:15:56;10.63;;;6.07;;
14125;SDS011;7141;49.484;11.242;2023-02-15T01:18:22;10.00;;;6.50;;
14125;SDS011;7141;49.484;11.242;2023-02-15T01:20:48;11.37;;;7.17;;
14125;SDS011;7141;49.484;11.242;2023-02-15T01:23:14;10.50;;;6.47;;
14125;SDS011;7141;49.484;11.242;2023-02-15T01:25:40;11.53;;;7.13;;
14125;SDS011;7141;49.484;11.242;2023-02-15T01:28:06;13.10;;;7.17;;
14125;SDS011;7141;49.484;11.242;2023-02-15T01:30:32;11.77;;;6.67;;
14125;SDS011;7141;49.484;11.242;2023-02-15T01:32:58;11.30;;;6.80;;
14125;SDS011;7141;49.484;11.242;2023-02-15T01:35:26;13.07;;;7.90;;
14125;SDS011;7141;49.484;11.242;2023-02-15T01:37:52;12.17;;;7.50;;
14125;SDS011;7141;49.484;11.242;2023-02-15T01:40:18;12.47;;;6.83;;
14125;SDS011;7141;49.484;11.242;2023-02-15T01:42:44;13.90;;;7.53;;
14125;SDS011;7141;49.484;11.242;2023-02-15T01:47:51;12.10;;;8.07;;
14125;SDS011;7141;49.484;11.242;2023-02-15T01:50:21;10.53;;;6.97;;
14125;SDS011;7141;49.484;11.242;2023-02-15T01:52:58;12.07;;;7.87;;
14125;SDS011;7141;49.484;11.242;2023-02-15T01:55:26;12.37;;;7.33;;
14125;SDS011;7141;49.484;11.242;2023-02-15T01:57:53;14.40;;;7.27;;
14125;SDS011;7141;49.484;11.242;2023-02-15T02:00:19;11.77;;;7.43;;
14125;SDS011;7141;49.484;11.242;2023-02-15T02:02:46;9.80;;;6.80;;
14125;SDS011;7141;49.484;11.242;2023-02-15T02:05:14;12.40;;;7.60;;
14125;SDS011;7141;49.484;11.242;2023-02-15T02:07:41;12.83;;;7.70;;
14125;SDS011;7141;49.484;11.242;2023-02-15T02:10:08;9.10;;;6.43;;
14125;SDS011;7141;49.484;11.242;2023-02-15T02:12:35;11.63;;;7.80;;
14125;SDS011;7141;49.484;11.242;2023-02-15T02:15:02;10.77;;;6.87;;
14125;SDS011;7141;49.484;11.242;2023-02-15T02:36:31;12.20;;;7.57;;
14125;SDS011;7141;49.484;11.242;2023-02-15T02:41:24;11.70;;;7.83;;
14125;SDS011;7141;49.484;11.242;2023-02-15T02:43:54;13.67;;;7.00;;
14125;SDS011;7141;49.484;11.242;2023-02-15T02:49:13;11.30;;;7.43;;
14125;SDS011;7141;49.484;11.242;2023-02-15T02:51:39;11.93;;;7.20;;
14125;SDS011;7141;49.484;11.242;2023-02-15T02:54:05;14.87;;;8.27;;
14125;SDS011;7141;49.484;11.242;2023-02-15T02:56:50;12.50;;;7.87;;
14125;SDS011;7141;49.484;11.242;2023-02-15T02:59:27;11.80;;;7.77;;
14125;SDS011;7141;49.484;11.242;2023-02-15T03:02:01;13.50;;;8.00;;
14125;SDS011;7141;49.484;11.242;2023-02-15T03:04:32;14.27;;;8.17;;
14125;SDS011;7141;49.484;11.242;2023-02-15T03:07:02;12.47;;;8.00;;
14125;SDS011;7141;49.484;11.242;2023-02-15T03:09:30;11.83;;;7.90;;
14125;SDS011;7141;49.484;11.242;2023-02-15T03:12:07;10.60;;;6.83;;
14125;SDS011;7141;49.484;11.242;2023-02-15T03:14:34;10.07;;;7.00;;
14125;SDS011;7141;49.484;11.242;2023-02-15T03:17:00;10.93;;;7.23;;
14125;SDS011;7141;49.484;11.242;2023-02-15T03:19:28;10.83;;;7.10;;
14125;SDS011;7141;49.484;11.242;2023-02-15T03:21:58;11.40;;;7.17;;
14125;SDS011;7141;49.484;11.242;2023-02-15T03:24:35;12.53;;;7.83;;
14125;SDS011;7141;49.484;11.242;2023-02-15T03:27:02;11.30;;;7.23;;
14125;SDS011;7141;49.484;11.242;2023-02-15T03:29:30;11.67;;;7.17;;
14125;SDS011;7141;49.484;11.242;2023-02-15T03:32:00;12.77;;;8.13;;
14125;SDS011;7141;49.484;11.242;2023-02-15T03:34:27;12.37;;;8.37;;
14125;SDS011;7141;49.484;11.242;2023-02-15T03:41:56;12.37;;;7.90;;
14125;SDS011;7141;49.484;11.242;2023-02-15T03:44:26;13.87;;;8.27;;
14125;SDS011;7141;49.484;11.242;2023-02-15T03:49:24;12.77;;;7.53;;
14125;SDS011;7141;49.484;11.242;2023-02-15T03:51:51;13.20;;;7.57;;
14125;SDS011;7141;49.484;11.242;2023-02-15T03:54:20;12.77;;;7.50;;
14125;SDS011;7141;49.484;11.242;2023-02-15T03:57:06;16.40;;;9.00;;
14125;SDS011;7141;49.484;11.242;2023-02-15T03:59:51;15.27;;;7.80;;
14125;SDS011;7141;49.484;11.242;2023-02-15T04:02:38;14.30;;;8.60;;
14125;SDS011;7141;49.484;11.242;2023-02-15T04:05:06;13.70;;;8.00;;
14125;SDS011;7141;49.484;11.242;2023-02-15T04:07:32;13.73;;;7.83;;
14125;SDS011;7141;49.484;11.242;2023-02-15T04:09:57;14.37;;;8.33;;
14125;SDS011;7141;49.484;11.242;2023-02-15T04:12:42;14.17;;;9.17;;
14125;SDS011;7141;49.484;11.242;2023-02-15T04:15:11;13.37;;;7.97;;
14125;SDS011;7141;49.484;11.242;2023-02-15T04:17:56;14.03;;;8.17;;
14125;SDS011;7141;49.484;11.242;2023-02-15T04:20:22;13.37;;;8.33;;
14125;SDS011;7141;49.484;11.242;2023-02-15T04:23:06;17.10;;;9.03;;
14125;SDS011;7141;49.484;11.242;2023-02-15T04:25:52;13.90;;;8.17;;
14125;SDS011;7141;49.484;11.242;2023-02-15T04:28:18;12.10;;;8.03;;
14125;SDS011;7141;49.484;11.242;2023-02-15T04:30:43;12.73;;;7.60;;
14125;SDS011;7141;49.484;11.242;2023-02-15T04:33:09;15.33;;;8.93;;
14125;SDS011;7141;49.484;11.242;2023-02-15T04:35:35;15.27;;;8.67;;
14125;SDS011;7141;49.484;11.242;2023-02-15T04:38:01;13.37;;;8.40;;
14125;SDS011;7141;49.484;11.242;2023-02-15T04:40:27;14.10;;;8.50;;
14125;SDS011;7141;49.484;11.242;2023-02-15T04:42:53;12.77;;;8.27;;
14125;SDS011;7141;49.484;11.242;2023-02-15T04:45:19;16.20;;;9.20;;
14125;SDS011;7141;49.484;11.242;2023-02-15T04:47:45;15.50;;;8.97;;
14125;SDS011;7141;49.484;11.242;2023-02-15T04:50:11;15.27;;;9.00;;
14125;SDS011;7141;49.484;11.242;2023-02-15T04:52:37;16.10;;;9.30;;
14125;SDS011;7141;49.484;11.242;2023-02-15T04:55:03;16.20;;;9.43;;
14125;SDS011;7141;49.484;11.242;2023-02-15T04:57:29;14.23;;;8.70;;
14125;SDS011;7141;49.484;11.242;2023-02-15T04:59:55;16.33;;;9.87;;
14125;SDS011;7141;49.484;11.242;2023-02-15T05:02:23;15.90;;;9.33;;
14125;SDS011;7141;49.484;11.242;2023-02-15T05:04:49;19.73;;;10.07;;
14125;SDS011;7141;49.484;11.242;2023-02-15T05:07:15;14.17;;;9.13;;
14125;SDS011;7141;49.484;11.242;2023-02-15T05:09:42;16.27;;;9.43;;
14125;SDS011;7141;49.484;11.242;2023-02-15T05:12:08;16.47;;;9.47;;
14125;SDS011;7141;49.484;11.242;2023-02-15T05:14:34;16.30;;;9.43;;
14125;SDS011;7141;49.484;11.242;2023-02-15T05:17:00;15.70;;;9.70;;
14125;SDS011;7141;49.484;11.242;2023-02-15T05:19:28;14.80;;;9.57;;
14125;SDS011;7141;49.484;11.242;2023-02-15T05:21:54;18.47;;;9.97;;
14125;SDS011;7141;49.484;11.242;2023-02-15T05:24:20;16.97;;;10.37;;
14125;SDS011;7141;49.484;11.242;2023-02-15T05:27:04;16.13;;;10.63;;
14125;SDS011;7141;49.484;11.242;2023-02-15T05:29:49;16.00;;;9.53;;
14125;SDS011;7141;49.484;11.242;2023-02-15T05:32:15;18.07;;;9.93;;
14125;SDS011;7141;49.484;11.242;2023-02-15T05:34:41;17.97;;;9.80;;
14125;SDS011;7141;49.484;11.242;2023-02-15T05:37:07;16.13;;;9.83;;
14125;SDS011;7141;49.484;11.242;2023-02-15T05:39:33;16.77;;;9.73;;
14125;SDS011;7141;49.484;11.242;2023-02-15T05:41:59;17.00;;;9.47;;
14125;SDS011;7141;49.484;11.242;2023-02-15T05:44:25;17.40;;;9.73;;
14125;SDS011;7141;49.484;11.242;2023-02-15T05:46:51;18.17;;;9.50;;
14125;SDS011;7141;49.484;11.242;2023-02-15T05:49:17;27.50;;;19.07;;
14125;SDS011;7141;49.484;11.242;2023-02-15T05:51:43;16.43;;;10.37;;
14125;SDS011;7141;49.484;11.242;2023-02-15T05:54:09;16.17;;;9.60;;
14125;SDS011;7141;49.484;11.242;2023-02-15T05:56:35;16.53;;;10.00;;
14125;SDS011;7141;49.484;11.242;2023-02-15T05:59:01;17.67;;;10.07;;
14125;SDS011;7141;49.484;11.242;2023-02-15T06:01:27;18.60;;;10.47;;
14125;SDS011;7141;49.484;11.242;2023-02-15T06:03:53;17.57;;;10.03;;
14125;SDS011;7141;49.484;11.242;2023-02-15T06:06:20;16.47;;;9.97;;
14125;SDS011;7141;49.484;11.242;2023-02-15T06:08:46;20.37;;;10.93;;
14125;SDS011;7141;49.484;11.242;2023-02-15T06:11:12;16.13;;;10.27;;
14125;SDS011;7141;49.484;11.242;2023-02-15T06:13:38;17.00;;;10.33;;
14125;SDS011;7141;49.484;11.242;2023-02-15T06:16:05;16.23;;;9.70;;
14125;SDS011;7141;49.484;11.242;2023-02-15T06:18:31;18.10;;;10.47;;
14125;SDS011;7141;49.484;11.242;2023-02-15T06:20:57;17.70;;;10.50;;
14125;SDS011;7141;49.484;11.242;2023-02-15T06:23:22;17.60;;;10.80;;
14125;SDS011;7141;49.484;11.242;2023-02-15T06:25:48;17.93;;;9.93;;
14125;SDS011;7141;49.484;11.242;2023-02-15T06:28:14;16.70;;;10.00;;
14125;SDS011;7141;49.484;11.242;2023-02-15T06:30:40;16.80;;;10.60;;
14125;SDS011;7141;49.484;11.242;2023-02-15T06:33:06;17.67;;;11.43;;
14125;SDS011;7141;49.484;11.242;2023-02-15T06:35:32;16.93;;;10.90;;
14125;SDS011;7141;49.484;11.242;2023-02-15T06:37:58;17.00;;;9.83;;
14125;SDS011;7141;49.484;11.242;2023-02-15T06:40:24;18.77;;;10.90;;
14125;SDS011;7141;49.484;11.242;2023-02-15T06:42:50;18.77;;;11.37;;
14125;SDS011;7141;49.484;11.242;2023-02-15T06:45:16;25.47;;;13.23;;
14125;SDS011;7141;49.484;11.242;2023-02-15T06:47:42;19.70;;;11.17;;
14125;SDS011;7141;49.484;11.242;2023-02-15T06:50:08;15.97;;;9.67;;
14125;SDS011;7141;49.484;11.242;2023-02-15T06:52:35;18.07;;;10.40;;
14125;SDS011;7141;49.484;11.242;2023-02-15T06:55:01;18.30;;;9.90;;
14125;SDS011;7141;49.484;11.242;2023-02-15T06:57:27;16.07;;;10.00;;
14125;SDS011;7141;49.484;11.242;2023-02-15T06:59:53;15.17;;;9.43;;
14125;SDS011;7141;49.484;11.242;2023-02-15T07:02:19;19.17;;;10.27;;
14125;SDS011;7141;49.484;11.242;2023-02-15T07:04:45;17.70;;;10.23;;
14125;SDS011;7141;49.484;11.242;2023-02-15T07:07:11;18.13;;;9.40;;
14125;SDS011;7141;49.484;11.242;2023-02-15T07:09:37;17.43;;;9.90;;
14125;SDS011;7141;49.484;11.242;2023-02-15T07:12:03;15.27;;;9.13;;
14125;SDS011;7141;49.484;11.242;2023-02-15T07:14:48;15.00;;;9.23;;
14125;SDS011;7141;49.484;11.242;2023-02-15T07:17:14;14.83;;;9.60;;
14125;SDS011;7141;49.484;11.242;2023-02-15T07:19:40;15.77;;;9.40;;
14125;SDS011;7141;49.484;11.242;2023-02-15T07:22:06;17.80;;;9.57;;
14125;SDS011;7141;49.484;11.242;2023-02-15T07:24:32;17.63;;;8.93;;
14125;SDS011;7141;49.484;11.242;2023-02-15T07:26:58;15.77;;;9.53;;
14125;SDS011;7141;49.484;11.242;2023-02-15T07:29:24;16.77;;;9.53;;
14125;SDS011;7141;49.484;11.242;2023-02-15T07:31:50;16.77;;;9.97;;
14125;SDS011;7141;49.484;11.242;2023-02-15T07:34:16;20.23;;;10.97;;
14125;SDS011;7141;49.484;11.242;2023-02-15T07:36:42;18.33;;;10.93;;
14125;SDS011;7141;49.484;11.242;2023-02-15T07:39:12;18.57;;;10.90;;
14125;SDS011;7141;49.484;11.242;2023-02-15T07:41:38;14.80;;;10.17;;
14125;SDS011;7141;49.484;11.242;2023-02-15T07:44:04;16.83;;;10.47;;
14125;SDS011;7141;49.484;11.242;2023-02-15T07:46:30;19.00;;;10.10;;
14125;SDS011;7141;49.484;11.242;2023-02-15T07:48:56;16.20;;;9.40;;
14125;SDS011;7141;49.484;11.242;2023-02-15T07:51:22;15.40;;;9.93;;
14125;SDS011;7141;49.484;11.242;2023-02-15T07:53:48;14.47;;;8.30;;
14125;SDS011;7141;49.484;11.242;2023-02-15T07:56:16;15.47;;;9.20;;
14125;SDS011;7141;49.484;11.242;2023-02-15T07:58:42;16.60;;;8.87;;
14125;SDS011;7141;49.484;11.242;2023-02-15T08:01:21;14.47;;;9.03;;
14125;SDS011;7141;49.484;11.242;2023-02-15T08:03:48;15.73;;;9.40;;
14125;SDS011;7141;49.484;11.242;2023-02-15T08:06:14;17.23;;;8.60;;
14125;SDS011;7141;49.484;11.242;2023-02-15T08:08:40;16.53;;;9.43;;
14125;SDS011;7141;49.484;11.242;2023-02-15T08:11:22;15.03;;;9.23;;
14125;SDS011;7141;49.484;11.242;2023-02-15T08:14:15;15.67;;;9.43;;
14125;SDS011;7141;49.484;11.242;2023-02-15T08:16:45;14.07;;;9.20;;
14125;SDS011;7141;49.484;11.242;2023-02-15T08:21:38;14.17;;;9.07;;
14125;SDS011;7141;49.484;11.242;2023-02-15T08:24:05;16.73;;;10.43;;
14125;SDS011;7141;49.484;11.242;2023-02-15T08:26:31;17.03;;;9.03;;
14125;SDS011;7141;49.484;11.242;2023-02-15T08:28:58;17.50;;;9.60;;
14125;SDS011;7141;49.484;11.242;2023-02-15T08:31:26;22.53;;;11.00;;
14125;SDS011;7141;49.484;11.242;2023-02-15T08:33:52;15.37;;;10.20;;
14125;SDS011;7141;49.484;11.242;2023-02-15T08:36:19;17.07;;;9.90;;
14125;SDS011;7141;49.484;11.242;2023-02-15T08:38:46;20.40;;;10.83;;
14125;SDS011;7141;49.484;11.242;2023-02-15T08:41:13;19.93;;;10.83;;
14125;SDS011;7141;49.484;11.242;2023-02-15T08:43:40;20.93;;;10.83;;
14125;SDS011;7141;49.484;11.242;2023-02-15T08:46:06;17.40;;;10.40;;
14125;SDS011;7141;49.484;11.242;2023-02-15T08:48:33;16.20;;;10.17;;
14125;SDS011;7141;49.484;11.242;2023-02-15T08:51:04;18.13;;;11.40;;
14125;SDS011;7141;49.484;11.242;2023-02-15T08:53:31;21.73;;;12.10;;
14125;SDS011;7141;49.484;11.242;2023-02-15T08:55:57;18.63;;;11.53;;
14125;SDS011;7141;49.484;11.242;2023-02-15T08:58:23;17.23;;;10.90;;
14125;SDS011;7141;49.484;11.242;2023-02-15T09:00:50;21.17;;;11.27;;
14125;SDS011;7141;49.484;11.242;2023-02-15T09:03:16;15.37;;;9.83;;
14125;SDS011;7141;49.484;11.242;2023-02-15T09:05:42;17.30;;;10.00;;
14125;SDS011;7141;49.484;11.242;2023-02-15T09:08:08;17.73;;;10.17;;
14125;SDS011;7141;49.484;11.242;2023-02-15T09:10:34;18.83;;;10.40;;
14125;SDS011;7141;49.484;11.242;2023-02-15T09:13:00;21.20;;;10.47;;
14125;SDS011;7141;49.484;11.242;2023-02-15T09:15:26;16.30;;;9.27;;
14125;SDS011;7141;49.484;11.242;2023-02-15T09:17:52;18.27;;;10.43;;
14125;SDS011;7141;49.484;11.242;2023-02-15T09:20:18;17.17;;;9.73;;
14125;SDS011;7141;49.484;11.242;2023-02-15T09:22:44;17.70;;;8.97;;
14125;SDS011;7141;49.484;11.242;2023-02-15T09:25:10;13.93;;;8.60;;
14125;SDS011;7141;49.484;11.242;2023-02-15T09:27:38;17.37;;;9.27;;
14125;SDS011;7141;49.484;11.242;2023-02-15T09:30:05;14.33;;;9.33;;
14125;SDS011;7141;49.484;11.242;2023-02-15T09:32:31;12.70;;;8.37;;
14125;SDS011;7141;49.484;11.242;2023-02-15T09:34:57;14.53;;;8.80;;
14125;SDS011;7141;49.484;11.242;2023-02-15T09:37:23;13.47;;;8.17;;
14125;SDS011;7141;49.484;11.242;2023-02-15T09:39:48;13.47;;;8.30;;
14125;SDS011;7141;49.484;11.242;2023-02-15T09:44:57;16.23;;;8.30;;
14125;SDS011;7141;49.484;11.242;2023-02-15T09:55:38;13.50;;;8.87;;
14125;SDS011;7141;49.484;11.242;2023-02-15T10:08:29;13.63;;;8.00;;
14125;SDS011;7141;49.484;11.242;2023-02-15T10:11:21;18.10;;;8.17;;
14125;SDS011;7141;49.484;11.242;2023-02-15T10:16:38;12.70;;;7.63;;
14125;SDS011;7141;49.484;11.242;2023-02-15T10:21:39;13.57;;;8.90;;
14125;SDS011;7141;49.484;11.242;2023-02-15T10:24:14;16.83;;;8.80;;
14125;SDS011;7141;49.484;11.242;2023-02-15T10:26:44;13.40;;;9.30;;
14125;SDS011;7141;49.484;11.242;2023-02-15T10:32:01;15.37;;;9.20;;
14125;SDS011;7141;49.484;11.242;2023-02-15T10:34:39;13.67;;;8.53;;
14125;SDS011;7141;49.484;11.242;2023-02-15T10:42:07;15.60;;;8.10;;
14125;SDS011;7141;49.484;11.242;2023-02-15T10:57:46;14.63;;;7.90;;
14125;SDS011;7141;49.484;11.242;2023-02-15T11:05:22;13.70;;;7.63;;
14125;SDS011;7141;49.484;11.242;2023-02-15T11:07:51;12.93;;;8.27;;
14125;SDS011;7141;49.484;11.242;2023-02-15T11:12:44;14.67;;;8.33;;
14125;SDS011;7141;49.484;11.242;2023-02-15T11:15:19;12.73;;;7.63;;
14125;SDS011;7141;49.484;11.242;2023-02-15T11:18:11;11.80;;;7.67;;
14125;SDS011;7141;49.484;11.242;2023-02-15T11:20:36;10.27;;;7.13;;
14125;SDS011;7141;49.484;11.242;2023-02-15T11:23:07;11.83;;;7.03;;
14125;SDS011;7141;49.484;11.242;2023-02-15T11:25:40;11.87;;;8.40;;
14125;SDS011;7141;49.484;11.242;2023-02-15T11:28:09;12.67;;;7.97;;
14125;SDS011;7141;49.484;11.242;2023-02-15T11:30:41;12.83;;;8.03;;
14125;SDS011;7141;49.484;11.242;2023-02-15T11:33:14;14.53;;;8.53;;
14125;SDS011;7141;49.484;11.242;2023-02-15T11:35:48;13.83;;;8.73;;
14125;SDS011;7141;49.484;11.242;2023-02-15T11:38:16;13.00;;;8.33;;
14125;SDS011;7141;49.484;11.242;2023-02-15T11:45:45;14.37;;;8.30;;
14125;SDS011;7141;49.484;11.242;2023-02-15T11:48:12;13.57;;;8.33;;
14125;SDS011;7141;49.484;11.242;2023-02-15T11:50:39;16.30;;;9.67;;
14125;SDS011;7141;49.484;11.242;2023-02-15T11:53:18;13.30;;;8.20;;
14125;SDS011;7141;49.484;11.242;2023-02-15T11:55:46;12.60;;;8.33;;
14125;SDS011;7141;49.484;11.242;2023-02-15T12:03:29;14.83;;;8.40;;
14125;SDS011;7141;49.484;11.242;2023-02-15T12:06:01;12.10;;;8.03;;
14125;SDS011;7141;49.484;11.242;2023-02-15T12:08:38;13.83;;;7.97;;
14125;SDS011;7141;49.484;11.242;2023-02-15T12:11:39;13.47;;;7.93;;
14125;SDS011;7141;49.484;11.242;2023-02-15T12:13:58;11.67;;;7.97;;
14125;SDS011;7141;49.484;11.242;2023-02-15T12:16:25;13.37;;;8.40;;
14125;SDS011;7141;49.484;11.242;2023-02-15T12:18:53;12.27;;;7.77;;
14125;SDS011;7141;49.484;11.242;2023-02-15T12:21:30;19.23;;;8.93;;
14125;SDS011;7141;49.484;11.242;2023-02-15T12:23:58;13.80;;;8.70;;
14125;SDS011;7141;49.484;11.242;2023-02-15T12:26:32;11.87;;;8.23;;
14125;SDS011;7141;49.484;11.242;2023-02-15T12:29:21;16.03;;;8.40;;
14125;SDS011;7141;49.484;11.242;2023-02-15T12:31:46;12.80;;;8.13;;
14125;SDS011;7141;49.484;11.242;2023-02-15T12:34:18;14.47;;;8.93;;
14125;SDS011;7141;49.484;11.242;2023-02-15T12:36:47;14.27;;;8.87;;
14125;SDS011;7141;49.484;11.242;2023-02-15T12:39:16;12.53;;;8.20;;
14125;SDS011;7141;49.484;11.242;2023-02-15T12:41:46;14.47;;;9.20;;
14125;SDS011;7141;49.484;11.242;2023-02-15T12:44:17;12.70;;;8.43;;
14125;SDS011;7141;49.484;11.242;2023-02-15T12:46:55;13.27;;;8.80;;
14125;SDS011;7141;49.484;11.242;2023-02-15T12:49:22;12.23;;;8.67;;
14125;SDS011;7141;49.484;11.242;2023-02-15T12:51:50;12.80;;;8.50;;
14125;SDS011;7141;49.484;11.242;2023-02-15T12:56:51;12.57;;;9.17;;
14125;SDS011;7141;49.484;11.242;2023-02-15T12:59:18;13.77;;;8.40;;
14125;SDS011;7141;49.484;11.242;2023-02-15T13:01:47;14.07;;;9.20;;
14125;SDS011;7141;49.484;11.242;2023-02-15T13:06:46;17.27;;;10.23;;
14125;SDS011;7141;49.484;11.242;2023-02-15T13:11:45;14.43;;;8.80;;
14125;SDS011;7141;49.484;11.242;2023-02-15T13:14:16;16.97;;;9.57;;
14125;SDS011;7141;49.484;11.242;2023-02-15T13:16:44;16.40;;;9.10;;
14125;SDS011;7141;49.484;11.242;2023-02-15T13:19:12;16.13;;;9.97;;
14125;SDS011;7141;49.484;11.242;2023-02-15T13:21:41;15.10;;;9.67;;
14125;SDS011;7141;49.484;11.242;2023-02-15T13:26:45;15.23;;;9.47;;
14125;SDS011;7141;49.484;11.242;2023-02-15T13:29:17;19.00;;;9.77;;
14125;SDS011;7141;49.484;11.242;2023-02-15T13:31:44;16.20;;;9.67;;
14125;SDS011;7141;49.484;11.242;2023-02-15T13:34:12;16.17;;;9.80;;
14125;SDS011;7141;49.484;11.242;2023-02-15T13:36:52;13.90;;;9.70;;
14125;SDS011;7141;49.484;11.242;2023-02-15T13:39:26;16.70;;;10.73;;
14125;SDS011;7141;49.484;11.242;2023-02-15T13:42:00;16.37;;;10.07;;
14125;SDS011;7141;49.484;11.242;2023-02-15T13:56:53;14.57;;;10.13;;
14125;SDS011;7141;49.484;11.242;2023-02-15T13:59:36;16.53;;;10.23;;
14125;SDS011;7141;49.484;11.242;2023-02-15T14:07:29;18.07;;;10.83;;
14125;SDS011;7141;49.484;11.242;2023-02-15T14:12:40;17.37;;;11.10;;
14125;SDS011;7141;49.484;11.242;2023-02-15T14:23:11;18.83;;;11.83;;
14125;SDS011;7141;49.484;11.242;2023-02-15T14:25:45;21.27;;;11.83;;
14125;SDS011;7141;49.484;11.242;2023-02-15T14:28:17;18.27;;;12.50;;
14125;SDS011;7141;49.484;11.242;2023-02-15T14:30:48;20.10;;;12.40;;
14125;SDS011;7141;49.484;11.242;2023-02-15T14:35:41;19.10;;;11.87;;
14125;SDS011;7141;49.484;11.242;2023-02-15T14:40:59;19.20;;;12.47;;
14125;SDS011;7141;49.484;11.242;2023-02-15T14:48:55;19.27;;;12.73;;
14125;SDS011;7141;49.484;11.242;2023-02-15T14:54:10;24.50;;;13.80;;
14125;SDS011;7141;49.484;11.242;2023-02-15T15:04:35;28.07;;;16.17;;
14125;SDS011;7141;49.484;11.242;2023-02-15T15:09:38;29.23;;;16.67;;
14125;SDS011;7141;49.484;11.242;2023-02-15T15:12:13;29.93;;;16.77;;
14125;SDS011;7141;49.484;11.242;2023-02-15T15:14:40;27.33;;;16.57;;
14125;SDS011;7141;49.484;11.242;2023-02-15T15:17:08;30.13;;;15.80;;
14125;SDS011;7141;49.484;11.242;2023-02-15T15:22:21;32.17;;;17.73;;
14125;SDS011;7141;49.484;11.242;2023-02-15T15:24:52;27.50;;;15.90;;
14125;SDS011;7141;49.484;11.242;2023-02-15T15:30:49;26.97;;;16.07;;
14125;SDS011;7141;49.484;11.242;2023-02-15T15:40:40;33.10;;;18.00;;
14125;SDS011;7141;49.484;11.242;2023-02-15T15:50:46;32.63;;;18.13;;
14125;SDS011;7141;49.484;11.242;2023-02-15T15:53:19;32.07;;;17.93;;
14125;SDS011;7141;49.484;11.242;2023-02-15T15:55:46;33.03;;;18.13;;
14125;SDS011;7141;49.484;11.242;2023-02-15T15:58:13;32.13;;;17.43;;
14125;SDS011;7141;49.484;11.242;2023-02-15T16:00:43;31.30;;;18.97;;
14125;SDS011;7141;49.484;11.242;2023-02-15T16:03:20;32.83;;;18.03;;
14125;SDS011;7141;49.484;11.242;2023-02-15T16:05:46;32.10;;;17.87;;
14125;SDS011;7141;49.484;11.242;2023-02-15T16:08:25;32.27;;;18.80;;
14125;SDS011;7141;49.484;11.242;2023-02-15T16:10:51;36.27;;;18.97;;
14125;SDS011;7141;49.484;11.242;2023-02-15T16:13:17;34.60;;;19.60;;
14125;SDS011;7141;49.484;11.242;2023-02-15T16:15:44;34.27;;;19.67;;
14125;SDS011;7141;49.484;11.242;2023-02-15T16:18:15;33.20;;;19.27;;
14125;SDS011;7141;49.484;11.242;2023-02-15T16:20:41;38.07;;;20.63;;
14125;SDS011;7141;49.484;11.242;2023-02-15T16:28:37;42.77;;;22.40;;
14125;SDS011;7141;49.484;11.242;2023-02-15T16:31:14;44.20;;;23.10;;
14125;SDS011;7141;49.484;11.242;2023-02-15T16:33:41;43.03;;;23.20;;
14125;SDS011;7141;49.484;11.242;2023-02-15T16:36:23;42.53;;;22.33;;
14125;SDS011;7141;49.484;11.242;2023-02-15T16:41:25;47.23;;;24.97;;
14125;SDS011;7141;49.484;11.242;2023-02-15T16:43:52;47.20;;;24.17;;
14125;SDS011;7141;49.484;11.242;2023-02-15T16:48:48;49.17;;;25.33;;
14125;SDS011;7141;49.484;11.242;2023-02-15T16:51:20;40.03;;;21.90;;
14125;SDS011;7141;49.484;11.242;2023-02-15T16:53:47;45.30;;;22.90;;
14125;SDS011;7141;49.484;11.242;2023-02-15T16:56:13;44.90;;;23.20;;
14125;SDS011;7141;49.484;11.242;2023-02-15T16:58:42;47.73;;;23.00;;
14125;SDS011;7141;49.484;11.242;2023-02-15T17:01:08;54.93;;;29.40;;
14125;SDS011;7141;49.484;11.242;2023-02-15T17:03:35;46.37;;;25.47;;
14125;SDS011;7141;49.484;11.242;2023-02-15T17:06:02;44.23;;;24.03;;
14125;SDS011;7141;49.484;11.242;2023-02-15T17:11:11;45.07;;;23.23;;
14125;SDS011;7141;49.484;11.242;2023-02-15T17:13:37;66.67;;;37.63;;
14125;SDS011;7141;49.484;11.242;2023-02-15T17:21:01;51.60;;;30.67;;
14125;SDS011;7141;49.484;11.242;2023-02-15T17:23:41;47.17;;;25.97;;
14125;SDS011;7141;49.484;11.242;2023-02-15T17:26:11;48.93;;;26.63;;
14125;SDS011;7141;49.484;11.242;2023-02-15T17:28:40;48.47;;;25.70;;
14125;SDS011;7141;49.484;11.242;2023-02-15T17:31:12;48.53;;;23.57;;
14125;SDS011;7141;49.484;11.242;2023-02-15T17:33:39;45.97;;;23.53;;
14125;SDS011;7141;49.484;11.242;2023-02-15T17:36:12;52.67;;;25.30;;
14125;SDS011;7141;49.484;11.242;2023-02-15T17:38:58;277.57;;;104.77;;
14125;SDS011;7141;49.484;11.242;2023-02-15T17:41:25;615.27;;;170.10;;
14125;SDS011;7141;49.484;11.242;2023-02-15T17:43:52;401.67;;;100.53;;
14125;SDS011;7141;49.484;11.242;2023-02-15T17:46:18;445.87;;;125.07;;
14125;SDS011;7141;49.484;11.242;2023-02-15T17:48:47;78.20;;;37.23;;
14125;SDS011;7141;49.484;11.242;2023-02-15T17:51:14;60.20;;;30.43;;
14125;SDS011;7141;49.484;11.242;2023-02-15T17:53:41;53.87;;;27.40;;
14125;SDS011;7141;49.484;11.242;2023-02-15T17:56:27;84.67;;;41.20;;
14125;SDS011;7141;49.484;11.242;2023-02-15T17:58:53;76.27;;;38.93;;
14125;SDS011;7141;49.484;11.242;2023-02-15T18:01:19;59.97;;;31.40;;
14125;SDS011;7141;49.484;11.242;2023-02-15T18:04:05;54.07;;;27.33;;